createdAt,value
2023-05-05T00:02:24.577Z,94.23
2023-05-05T00:06:28.492Z,93.53
2023-05-05T00:10:32.891Z,88.83
2023-05-05T00:14:35.658Z,92.47
2023-05-05T00:18:38.380Z,89.69
2023-05-05T00:22:41.094Z,94.32
2023-05-05T00:26:45.194Z,92.73
2023-05-05T00:30:47.910Z,93.56
2023-05-05T00:34:50.988Z,93.99
2023-05-05T00:38:54.066Z,94.53
2023-05-05T00:42:59.519Z,92.15
2023-05-05T00:47:02.263Z,94.73
2023-05-05T00:51:08.781Z,96.90
2023-05-05T00:55:11.418Z,93.92
2023-05-05T00:59:15.650Z,90.99
2023-05-05T01:03:18.563Z,90.22
2023-05-05T01:07:28.693Z,90.10
2023-05-05T01:11:33.691Z,92.73
2023-05-05T01:15:43.443Z,95.61
2023-05-05T01:19:56.949Z,97.83
2023-05-05T01:24:28.750Z,95.04
2023-05-05T01:28:56.027Z,93.63
2023-05-05T01:33:03.528Z,91.10
2023-05-05T01:37:09.723Z,97.08
2023-05-05T01:41:18.741Z,97.99
2023-05-05T01:45:23.205Z,97.41
2023-05-05T01:49:27.721Z,94.26
2023-05-05T01:53:30.734Z,97.48
2023-05-05T01:57:34.326Z,98.04
2023-05-05T02:01:40.853Z,95.43
2023-05-05T02:05:45.796Z,96.40
2023-05-05T02:09:49.448Z,96.55
2023-05-05T02:13:52.379Z,97.79
2023-05-05T02:17:55.467Z,96.53
2023-05-05T02:21:59.565Z,95.47
2023-05-05T02:26:06.161Z,95.74
2023-05-05T02:30:11.222Z,93.02
2023-05-05T02:34:15.014Z,93.20
2023-05-05T02:38:18.948Z,91.27
2023-05-05T02:42:23.484Z,98.06
2023-05-05T02:46:26.839Z,94.91
2023-05-05T02:50:29.542Z,92.89
2023-05-05T02:54:34.300Z,91.65
2023-05-05T02:58:43.882Z,92.33
2023-05-05T03:02:53.064Z,96.06
2023-05-05T03:06:59.722Z,96.09
2023-05-05T03:11:07.234Z,93.03
2023-05-05T03:15:11.108Z,92.20
2023-05-05T03:19:15.642Z,90.97
2023-05-05T03:23:20.996Z,91.05
2023-05-05T03:27:25.186Z,92.64
2023-05-05T03:31:28.496Z,94.71
2023-05-05T03:35:31.311Z,93.85
2023-05-05T03:39:34.008Z,93.11
2023-05-05T03:43:39.373Z,96.71
2023-05-05T03:47:42.097Z,99.28
2023-05-05T03:51:44.897Z,97.06
2023-05-05T03:55:47.817Z,95.66
2023-05-05T03:59:52.292Z,96.57
2023-05-05T04:03:55.169Z,97.53
2023-05-05T04:07:58.765Z,94.37
2023-05-05T04:12:01.550Z,97.94
2023-05-05T04:16:06.128Z,97.94
2023-05-05T04:20:09.900Z,95.32
2023-05-05T04:24:12.878Z,90.94
2023-05-05T04:28:15.847Z,93.99
2023-05-05T04:32:20.231Z,92.48
2023-05-05T04:36:22.963Z,95.49
2023-05-05T04:40:26.218Z,93.21
2023-05-05T04:44:28.920Z,96.99
2023-05-05T04:48:34.283Z,93.50
2023-05-05T04:52:37.664Z,96.98
2023-05-05T04:56:40.860Z,95.85
2023-05-05T05:00:43.586Z,97.42
2023-05-05T05:04:47.899Z,90.88
2023-05-05T05:08:50.589Z,90.83
2023-05-05T05:12:53.357Z,92.24
2023-05-05T05:16:56.204Z,90.52
2023-05-05T05:21:00.266Z,90.52
2023-05-05T05:25:02.969Z,91.27
2023-05-05T05:29:05.953Z,92.13
2023-05-05T05:33:08.834Z,93.19
2023-05-05T05:37:12.965Z,96.65
2023-05-05T05:41:15.740Z,94.12
2023-05-05T05:45:18.784Z,87.94
2023-05-05T05:49:21.561Z,94.39
2023-05-05T05:53:25.665Z,93.20
2023-05-05T05:57:28.613Z,93.39
2023-05-05T06:01:31.252Z,95.81
2023-05-05T06:05:33.887Z,95.85
2023-05-05T06:09:38.328Z,91.32
2023-05-05T06:13:41.955Z,86.48
2023-05-05T06:17:44.926Z,86.47
2023-05-05T06:21:47.678Z,80.56
2023-05-05T06:25:53.086Z,87.15
2023-05-05T06:29:55.871Z,89.51
2023-05-05T06:33:58.933Z,89.80
2023-05-05T06:38:01.730Z,89.51
2023-05-05T06:42:05.914Z,90.23
2023-05-05T06:46:08.604Z,87.11
2023-05-05T06:50:12.246Z,81.84
2023-05-05T06:54:15.192Z,80.72
2023-05-05T06:58:19.377Z,79.93
2023-05-05T07:02:23.504Z,77.67
2023-05-05T07:06:27.662Z,76.27
2023-05-05T07:10:31.549Z,74.13
2023-05-05T07:14:35.838Z,74.96
2023-05-05T07:18:38.554Z,73.01
2023-05-05T07:22:41.663Z,73.02
2023-05-05T07:26:44.661Z,72.33
2023-05-05T07:30:49.350Z,73.13
2023-05-05T07:34:51.962Z,72.45
2023-05-05T07:38:55.157Z,73.19
2023-05-05T07:42:57.952Z,75.94
2023-05-05T07:47:02.963Z,75.85
2023-05-05T07:51:05.742Z,72.94
2023-05-05T07:55:08.829Z,71.42
2023-05-05T07:59:11.979Z,72.89
2023-05-05T08:03:16.210Z,72.29
2023-05-05T08:07:19.042Z,73.21
2023-05-05T08:11:21.806Z,71.83
2023-05-05T08:15:24.498Z,70.36
2023-05-05T08:19:29.682Z,71.53
2023-05-05T08:23:32.468Z,68.33
2023-05-05T08:27:35.706Z,70.05
2023-05-05T08:31:38.493Z,67.13
2023-05-05T08:35:42.951Z,69.32
2023-05-05T08:39:45.691Z,67.39
2023-05-05T08:43:49.285Z,67.60
2023-05-05T08:47:52.304Z,65.44
2023-05-05T08:51:58.056Z,72.26
2023-05-05T08:56:02.017Z,64.66
2023-05-05T09:00:05.361Z,62.47
2023-05-05T09:04:09.503Z,63.33
2023-05-05T09:08:13.706Z,64.48
2023-05-05T09:12:18.762Z,61.93
2023-05-05T09:16:22.570Z,57.75
2023-05-05T09:20:25.826Z,59.32
2023-05-05T09:24:30.010Z,58.74
2023-05-05T09:28:32.764Z,58.39
2023-05-05T09:32:49.023Z,58.46
2023-05-05T09:36:51.815Z,54.97
2023-05-05T09:40:55.964Z,55.65
2023-05-05T09:44:59.980Z,57.51
2023-05-05T09:49:23.458Z,53.06
2023-05-05T09:53:27.080Z,53.35
2023-05-05T09:57:33.464Z,52.81
2023-05-05T10:01:36.291Z,52.21
2023-05-05T10:05:50.529Z,53.10
2023-05-05T10:09:53.595Z,52.91
2023-05-05T10:13:58.441Z,49.52
2023-05-05T10:18:07.659Z,49.33
2023-05-05T10:22:11.384Z,52.45
2023-05-05T10:26:15.955Z,49.93
2023-05-05T10:30:24.719Z,48.73
2023-05-05T10:34:32.253Z,49.09
2023-05-05T10:38:35.057Z,46.35
2023-05-05T10:42:38.691Z,48.88
2023-05-05T10:46:44.221Z,49.03
2023-05-05T10:50:51.818Z,49.05
2023-05-05T10:55:02.353Z,51.81
2023-05-05T10:59:05.038Z,49.47
2023-05-05T11:03:34.012Z,47.92
2023-05-05T11:07:37.221Z,47.40
2023-05-05T11:12:02.971Z,46.66
2023-05-05T11:16:06.248Z,50.32
2023-05-05T11:20:11.553Z,50.81
2023-05-05T11:24:29.190Z,48.96
2023-05-05T11:28:32.471Z,46.42
2023-05-05T11:32:35.959Z,47.93
2023-05-05T11:36:41.669Z,49.84
2023-05-05T11:40:46.457Z,46.63
2023-05-05T11:44:49.267Z,47.75
2023-05-05T11:48:52.974Z,46.47
2023-05-05T11:52:57.076Z,46.99
2023-05-05T11:57:02.074Z,48.92
2023-05-05T12:01:07.019Z,50.61
2023-05-05T12:05:10.224Z,52.57
2023-05-05T12:09:17.238Z,50.23
2023-05-05T12:13:20.561Z,53.07
2023-05-05T12:17:24.346Z,48.93
2023-05-05T12:21:27.048Z,51.63
2023-05-05T12:25:38.162Z,50.69
2023-05-05T12:29:43.738Z,50.02
2023-05-05T12:33:46.737Z,50.40
2023-05-05T12:37:49.396Z,53.91
2023-05-05T12:41:53.309Z,51.71
2023-05-05T12:46:08.033Z,53.86
2023-05-05T12:50:11.409Z,51.55
2023-05-05T12:54:14.123Z,52.93
2023-05-05T12:58:18.760Z,51.58
2023-05-05T13:02:22.109Z,52.62
2023-05-05T13:06:27.219Z,54.61
2023-05-05T13:10:31.282Z,52.89
2023-05-05T13:14:36.395Z,59.23
2023-05-05T13:18:45.531Z,62.85
2023-05-05T13:22:48.285Z,62.81
2023-05-05T13:26:51.351Z,66.58
2023-05-05T13:30:56.039Z,67.38
2023-05-05T13:34:59.149Z,65.95
2023-05-05T13:39:02.069Z,71.44
2023-05-05T13:43:04.896Z,74.73
2023-05-05T13:47:09.698Z,84.59
2023-05-05T13:51:12.644Z,84.49
2023-05-05T13:55:15.554Z,80.98
2023-05-05T13:59:18.273Z,83.89
2023-05-05T14:03:23.822Z,89.11
2023-05-05T14:07:26.591Z,89.38
2023-05-05T14:11:29.425Z,89.43
2023-05-05T14:15:32.118Z,92.10
2023-05-05T14:19:36.427Z,89.92
2023-05-05T14:23:39.211Z,89.32
2023-05-05T14:27:41.956Z,89.75
2023-05-05T14:31:44.606Z,86.85
2023-05-05T14:35:49.034Z,91.31
2023-05-05T14:39:52.051Z,93.84
2023-05-05T14:43:54.996Z,95.62
2023-05-05T14:47:58.691Z,95.65
2023-05-05T14:52:03.290Z,92.96
2023-05-05T14:56:06.821Z,93.65
2023-05-05T15:00:10.995Z,89.38
2023-05-05T15:04:13.854Z,91.62
2023-05-05T15:08:19.280Z,88.52
2023-05-05T15:12:22.079Z,88.61
2023-05-05T15:16:24.850Z,93.96
2023-05-05T15:20:28.591Z,94.12
2023-05-05T15:24:32.792Z,93.70
2023-05-05T15:28:35.754Z,93.25
2023-05-05T15:32:38.621Z,88.00
2023-05-05T15:36:41.361Z,87.65
2023-05-05T15:40:48.325Z,86.91
2023-05-05T15:44:53.162Z,86.27
2023-05-05T15:48:55.641Z,85.84
2023-05-05T15:52:59.086Z,89.48
2023-05-05T15:57:03.263Z,88.25
2023-05-05T16:01:06.224Z,83.55
2023-05-05T16:05:10.007Z,88.40
2023-05-05T16:09:13.040Z,84.88
2023-05-05T16:13:17.360Z,83.97
2023-05-05T16:17:21.707Z,85.37
2023-05-05T16:21:25.717Z,81.66
2023-05-05T16:25:29.723Z,87.70
2023-05-05T16:29:33.824Z,88.58
2023-05-05T16:33:40.723Z,85.76
2023-05-05T16:37:43.388Z,84.50
2023-05-05T16:41:46.143Z,83.08
2023-05-05T16:45:50.311Z,84.45
2023-05-05T16:49:53.371Z,86.40
2023-05-05T16:53:56.492Z,84.52
2023-05-05T16:57:59.018Z,85.07
2023-05-05T17:02:03.336Z,85.06
2023-05-05T17:06:06.839Z,84.74
2023-05-05T17:10:11.210Z,85.80
2023-05-05T17:14:14.327Z,84.62
2023-05-05T17:18:20.277Z,83.86
2023-05-05T17:22:22.986Z,85.76
2023-05-05T17:26:25.783Z,84.71
2023-05-05T17:30:28.718Z,85.45
2023-05-05T17:34:32.904Z,82.97
2023-05-05T17:38:35.598Z,82.31
2023-05-05T17:42:38.986Z,83.60
2023-05-05T17:46:42.954Z,84.73
2023-05-05T17:50:48.135Z,83.90
2023-05-05T17:54:51.634Z,85.12
2023-05-05T17:58:54.918Z,84.33
2023-05-05T18:02:57.699Z,83.98
2023-05-05T18:07:01.922Z,84.31
2023-05-05T18:11:04.606Z,86.72
2023-05-05T18:15:09.144Z,89.37
2023-05-05T18:19:12.053Z,95.08
2023-05-05T18:23:16.388Z,95.69
2023-05-05T18:27:19.300Z,93.52
2023-05-05T18:31:25.169Z,93.73
2023-05-05T18:35:28.520Z,94.04
2023-05-05T18:39:32.451Z,96.20
2023-05-05T18:43:35.104Z,97.80
2023-05-05T18:47:38.948Z,97.60
2023-05-05T18:51:41.738Z,93.92
2023-05-05T18:55:47.026Z,92.86
2023-05-05T18:59:50.522Z,94.00
2023-05-05T19:03:53.248Z,91.04
2023-05-05T19:07:55.909Z,94.40
2023-05-05T19:12:00.407Z,93.91
2023-05-05T19:16:03.495Z,92.59
2023-05-05T19:20:07.648Z,94.44
2023-05-05T19:24:10.993Z,93.68
2023-05-05T19:28:15.167Z,96.06
2023-05-05T19:32:18.116Z,96.81
2023-05-05T19:36:20.996Z,93.87
2023-05-05T19:40:24.053Z,94.41
2023-05-05T19:44:28.092Z,94.70
2023-05-05T19:48:31.472Z,97.23
2023-05-05T19:52:36.533Z,97.42
2023-05-05T19:56:39.568Z,99.21
2023-05-05T20:00:43.840Z,97.29
2023-05-05T20:04:46.542Z,94.90
2023-05-05T20:08:49.265Z,98.20
2023-05-05T20:12:52.723Z,97.24
2023-05-05T20:16:56.963Z,95.53
2023-05-05T20:21:02.448Z,97.73
2023-05-05T20:25:05.642Z,96.87
2023-05-05T20:29:08.689Z,100.00
2023-05-05T20:33:12.913Z,97.60
2023-05-05T20:37:15.802Z,95.69
2023-05-05T20:41:18.501Z,94.68
2023-05-05T20:45:21.479Z,94.83
2023-05-05T20:49:25.719Z,94.35
2023-05-05T20:53:28.389Z,93.93
2023-05-05T20:57:31.095Z,98.27
2023-05-05T21:01:34.570Z,98.91
2023-05-05T21:05:39.934Z,99.41
2023-05-05T21:09:42.813Z,96.83
2023-05-05T21:13:45.473Z,95.14
2023-05-05T21:17:48.309Z,94.81
2023-05-05T21:21:53.737Z,96.65
2023-05-05T21:25:56.576Z,99.07
2023-05-05T21:29:59.279Z,99.00
2023-05-05T21:34:02.628Z,100.00
2023-05-05T21:38:06.965Z,99.10
2023-05-05T21:42:09.646Z,97.09
2023-05-05T21:46:12.941Z,98.53
2023-05-05T21:50:15.856Z,97.85
2023-05-05T21:54:20.342Z,100.00
2023-05-05T21:58:24.672Z,99.26
2023-05-05T22:02:27.761Z,96.98
2023-05-05T22:06:30.685Z,96.73
2023-05-05T22:10:35.099Z,95.48
2023-05-05T22:14:38.209Z,100.00
2023-05-05T22:18:41.291Z,100.00
2023-05-05T22:22:44.377Z,97.81
2023-05-05T22:26:48.684Z,98.75
2023-05-05T22:30:51.619Z,100.00
2023-05-05T22:34:54.490Z,100.00
2023-05-05T22:38:57.221Z,100.00
2023-05-05T22:43:01.755Z,97.52
2023-05-05T22:47:04.780Z,98.26
2023-05-05T22:51:08.008Z,100.00
2023-05-05T22:55:12.744Z,100.00
2023-05-05T22:59:17.125Z,99.87
2023-05-05T23:03:20.149Z,98.38
2023-05-05T23:07:22.882Z,100.00
2023-05-05T23:11:26.963Z,100.00
2023-05-05T23:15:31.202Z,100.00
2023-05-05T23:19:34.806Z,100.00
2023-05-05T23:23:37.497Z,99.83
2023-05-05T23:27:41.295Z,99.80
2023-05-05T23:31:46.262Z,99.08
2023-05-05T23:35:49.014Z,98.23
2023-05-05T23:39:51.930Z,98.59
2023-05-05T23:43:54.904Z,100.00
2023-05-05T23:47:59.234Z,100.00
2023-05-05T23:52:01.968Z,100.00
2023-05-05T23:56:04.852Z,100.00
